Skip Navigation LinksHome page > Weather > Current weather Skip Navigation Links

Current Weather

La Guardia, New York

For information only: do not use for flight planning or navigation.
Latest weather
Observation time Thursday, November 21, 2019 2:51 PM EST
Local time Thursday, November 21, 2019 3:00 PM EST
Flight conditions Visual Meteorological Conditions
Winds
Wind direction West-Northwest (290°)
Wind speed 5 mph
Visibility 10 mi.
Sky condition
Ceiling 25,000 ft. broken clouds
Cloud layer broken clouds 25,000 ft.
Temperature 53°F
Dewpoint 29°F
Altimeter 30.11 in.Hg
Derived measurements
Relative humidity 39%
Density altitude -502 ft.
Sea-level pressure 30.10 in.Hg
Remarks
Automated weather observing station with precipitation discriminator.
METAR KLGA 211951Z 29004KT 10SM BKN250 12/M02 A3011 RMK AO2 SLP194 T01171017

Settings

Location code

InnerDrive.Weather 4.0.6770.0 Release CLR 4.0.30319.42000
Copyright ©2018 Inner Drive Technology. All rights reserved. Portions Copyright ©1986-2018 David Braverman.

Find weather

Site navigation


Skip Navigation Links

Place info

Page info

PayPal - The safer, easier way to pay online!

Return home.

Copyright ©2019 Inner Drive Technology. Purveyors of fine, hand-crafted computer software. Page printed 2019-11-21T20:00:46 UTC.